createdAt,value
2018-11-25T00:03:55.140Z,21.28
2018-11-25T00:08:58.743Z,21.25
2018-11-25T00:14:02.380Z,21.27
2018-11-25T00:19:06.092Z,21.29
2018-11-25T00:24:09.391Z,21.27
2018-11-25T00:29:12.707Z,21.25
2018-11-25T00:34:16.006Z,21.33
2018-11-25T00:39:19.322Z,21.31
2018-11-25T00:44:22.633Z,21.28
2018-11-25T00:49:25.951Z,21.28
2018-11-25T00:54:29.289Z,21.27
2018-11-25T00:59:32.562Z,21.29
2018-11-25T01:04:35.881Z,21.27
2018-11-25T01:09:39.155Z,21.30
2018-11-25T01:14:42.535Z,21.31
2018-11-25T01:19:45.820Z,21.29
2018-11-25T01:24:49.127Z,21.25
2018-11-25T01:29:52.543Z,21.27
2018-11-25T01:35:00.933Z,21.25
2018-11-25T01:39:59.260Z,21.27
2018-11-25T01:45:02.939Z,21.26
2018-11-25T01:50:07.980Z,21.27
2018-11-25T01:55:12.483Z,21.30
2018-11-25T02:00:20.423Z,21.33
2018-11-25T02:05:23.708Z,21.25
2018-11-25T02:10:27.011Z,21.26
2018-11-25T02:15:30.331Z,21.30
2018-11-25T02:20:33.736Z,21.26
2018-11-25T02:25:37.042Z,21.28
2018-11-25T02:30:40.325Z,21.28
2018-11-25T02:35:43.684Z,21.30
2018-11-25T02:40:47.083Z,21.30
2018-11-25T02:45:50.375Z,21.29
2018-11-25T02:50:53.724Z,21.29
2018-11-25T02:55:57.020Z,21.34
2018-11-25T03:01:04.502Z,21.30
2018-11-25T03:06:07.795Z,21.32
2018-11-25T03:11:11.152Z,21.29
2018-11-25T03:16:14.467Z,21.26
2018-11-25T03:21:17.920Z,21.29
2018-11-25T03:26:21.288Z,21.32
2018-11-25T03:31:24.713Z,21.28
2018-11-25T03:36:28.014Z,21.29
2018-11-25T03:41:31.323Z,21.32
2018-11-25T03:46:34.635Z,21.29
2018-11-25T03:51:37.952Z,21.30
2018-11-25T03:56:41.254Z,21.29
2018-11-25T04:01:44.572Z,21.25
2018-11-25T04:06:47.884Z,21.28
2018-11-25T04:11:51.414Z,21.28
2018-11-25T04:16:54.699Z,21.26
2018-11-25T04:21:58.019Z,21.27
2018-11-25T04:27:01.324Z,21.29
2018-11-25T04:32:04.660Z,21.33
2018-11-25T04:37:07.938Z,21.35
2018-11-25T04:42:11.260Z,21.36
2018-11-25T04:47:14.588Z,21.39
2018-11-25T04:52:17.979Z,21.36
2018-11-25T04:57:21.325Z,21.36
2018-11-25T05:02:24.711Z,21.28
2018-11-25T05:07:28.020Z,21.27
2018-11-25T05:12:31.299Z,21.25
2018-11-25T05:17:34.639Z,21.28
2018-11-25T05:22:37.959Z,21.27
2018-11-25T05:27:41.259Z,21.24
2018-11-25T05:32:44.898Z,21.30
2018-11-25T05:37:48.195Z,21.28
2018-11-25T05:42:51.500Z,21.28
2018-11-25T05:47:54.813Z,21.33
2018-11-25T05:52:58.247Z,21.26
2018-11-25T05:58:01.527Z,21.35
2018-11-25T06:03:04.868Z,21.37
2018-11-25T06:08:08.228Z,21.30
2018-11-25T06:13:11.572Z,21.25
2018-11-25T06:18:14.879Z,21.23
2018-11-25T06:23:18.195Z,21.24
2018-11-25T06:28:21.491Z,21.30
2018-11-25T06:33:24.839Z,21.29
2018-11-25T06:38:28.134Z,21.27
2018-11-25T06:43:31.431Z,21.28
2018-11-25T06:48:34.752Z,21.31
2018-11-25T06:53:38.034Z,21.25
2018-11-25T06:58:41.417Z,21.28
2018-11-25T07:03:44.789Z,21.27
2018-11-25T07:08:48.110Z,21.28
2018-11-25T07:13:51.412Z,21.29
2018-11-25T07:18:54.932Z,21.25
2018-11-25T07:23:58.236Z,21.26
2018-11-25T07:29:01.550Z,21.27
2018-11-25T07:34:05.042Z,21.22
2018-11-25T07:39:08.608Z,21.28
2018-11-25T07:44:12.030Z,21.26
2018-11-25T07:49:15.453Z,21.31
2018-11-25T07:54:18.776Z,21.19
2018-11-25T07:59:22.132Z,21.20
2018-11-25T08:04:25.540Z,21.21
2018-11-25T08:09:28.855Z,21.00
2018-11-25T08:14:32.169Z,20.81
2018-11-25T08:19:35.477Z,20.70
2018-11-25T08:24:39.342Z,20.62
2018-11-25T08:29:42.713Z,20.84
2018-11-25T08:34:46.019Z,20.96
2018-11-25T08:39:49.378Z,21.01
2018-11-25T08:44:54.043Z,21.06
2018-11-25T08:49:56.239Z,21.04
2018-11-25T08:54:59.581Z,20.99
2018-11-25T09:00:02.947Z,20.97
2018-11-25T09:05:06.873Z,20.99
2018-11-25T09:10:14.258Z,20.93
2018-11-25T09:15:18.691Z,20.85
2018-11-25T09:20:23.298Z,20.95
2018-11-25T09:25:34.318Z,20.93
2018-11-25T09:30:37.600Z,20.95
2018-11-25T09:35:41.441Z,21.01
2018-11-25T09:40:45.699Z,20.95
2018-11-25T09:45:49.084Z,20.97
2018-11-25T09:50:52.396Z,21.02
2018-11-25T09:55:56.100Z,20.92
2018-11-25T10:00:59.519Z,20.97
2018-11-25T10:06:04.114Z,20.98
2018-11-25T10:11:07.588Z,21.01
2018-11-25T10:16:12.056Z,21.00
2018-11-25T10:21:15.436Z,20.96
2018-11-25T10:26:18.752Z,20.99
2018-11-25T10:31:22.391Z,20.95
2018-11-25T10:36:25.784Z,20.96
2018-11-25T10:41:29.220Z,20.97
2018-11-25T10:46:32.590Z,20.97
2018-11-25T10:51:35.916Z,21.02
2018-11-25T10:56:39.276Z,20.99
2018-11-25T11:01:52.002Z,21.00
2018-11-25T11:07:59.382Z,20.96
2018-11-25T11:13:02.701Z,21.01
2018-11-25T11:18:06.644Z,21.01
2018-11-25T11:23:10.154Z,20.96
2018-11-25T11:28:13.579Z,21.06
2018-11-25T11:33:16.947Z,21.05
2018-11-25T11:38:20.480Z,21.06
2018-11-25T11:43:23.789Z,21.16
2018-11-25T11:48:27.133Z,21.15
2018-11-25T11:53:30.509Z,21.15
2018-11-25T11:58:33.858Z,21.17
2018-11-25T12:03:37.913Z,21.11
2018-11-25T12:08:41.263Z,21.18
2018-11-25T12:13:44.669Z,21.10
2018-11-25T12:18:47.985Z,21.09
2018-11-25T12:23:51.756Z,21.15
2018-11-25T12:28:55.654Z,21.08
2018-11-25T12:33:59.620Z,21.12
2018-11-25T12:39:02.992Z,21.04
2018-11-25T12:44:06.378Z,21.17
2018-11-25T12:49:10.022Z,21.10
2018-11-25T12:54:13.411Z,21.05
2018-11-25T12:59:16.726Z,21.11
2018-11-25T13:04:20.165Z,21.18
2018-11-25T13:09:23.547Z,21.12
2018-11-25T13:14:27.388Z,21.10
2018-11-25T13:19:30.791Z,21.11
2018-11-25T13:24:34.228Z,21.14
2018-11-25T13:29:37.944Z,21.06
2018-11-25T13:34:41.838Z,21.08
2018-11-25T13:39:45.230Z,21.09
2018-11-25T13:44:47.488Z,21.06
2018-11-25T13:49:50.828Z,21.10
2018-11-25T13:54:54.164Z,21.05
2018-11-25T13:59:57.796Z,21.10
2018-11-25T14:05:01.197Z,21.11
2018-11-25T14:10:06.699Z,21.09
2018-11-25T14:15:11.018Z,21.09
2018-11-25T14:20:14.424Z,21.11
2018-11-25T14:25:18.923Z,21.11
2018-11-25T14:30:25.032Z,21.15
2018-11-25T14:35:28.639Z,21.20
2018-11-25T14:40:32.066Z,21.15
2018-11-25T14:45:36.374Z,21.18
2018-11-25T14:50:40.007Z,21.23
2018-11-25T14:55:43.343Z,21.21
2018-11-25T15:00:46.800Z,21.20
2018-11-25T15:05:50.123Z,21.19
2018-11-25T15:10:53.999Z,21.16
2018-11-25T15:15:58.655Z,21.10
2018-11-25T15:21:02.170Z,21.07
2018-11-25T15:26:06.256Z,21.02
2018-11-25T15:31:09.575Z,21.05
2018-11-25T15:36:12.976Z,21.04
2018-11-25T15:41:16.280Z,21.07
2018-11-25T15:46:19.576Z,21.06
2018-11-25T15:51:22.887Z,21.00
2018-11-25T15:56:26.342Z,21.03
2018-11-25T16:01:29.831Z,21.06
2018-11-25T16:06:35.103Z,21.00
2018-11-25T16:11:38.464Z,20.98
2018-11-25T16:16:41.953Z,21.03
2018-11-25T16:21:45.328Z,20.98
2018-11-25T16:26:48.740Z,20.95
2018-11-25T16:31:52.088Z,21.03
2018-11-25T16:36:55.383Z,21.03
2018-11-25T16:41:58.809Z,21.05
2018-11-25T16:47:02.289Z,20.96
2018-11-25T16:52:05.999Z,21.05
2018-11-25T16:57:09.563Z,20.96
2018-11-25T17:02:13.082Z,21.01
2018-11-25T17:07:16.742Z,20.97
2018-11-25T17:12:20.213Z,21.05
2018-11-25T17:17:23.835Z,21.12
2018-11-25T17:22:27.254Z,21.16
2018-11-25T17:27:30.653Z,21.17
2018-11-25T17:32:34.176Z,21.20
2018-11-25T17:37:37.759Z,21.21
2018-11-25T17:42:41.224Z,21.20
2018-11-25T17:47:44.619Z,21.21
2018-11-25T17:52:48.737Z,21.17
2018-11-25T17:57:52.285Z,21.09
2018-11-25T18:02:55.788Z,21.12
2018-11-25T18:07:59.290Z,21.18
2018-11-25T18:13:02.810Z,21.20
2018-11-25T18:18:09.168Z,21.21
2018-11-25T18:23:12.532Z,21.19
2018-11-25T18:28:16.071Z,21.19
2018-11-25T18:33:19.454Z,21.15
2018-11-25T18:38:22.801Z,21.14
2018-11-25T18:43:26.235Z,21.11
2018-11-25T18:48:30.667Z,21.13
2018-11-25T18:53:33.964Z,21.15
2018-11-25T18:58:37.280Z,21.20
2018-11-25T19:03:40.904Z,21.20
2018-11-25T19:08:44.192Z,21.19
2018-11-25T19:13:47.552Z,21.17
2018-11-25T19:18:50.972Z,21.17
2018-11-25T19:23:54.301Z,21.20
2018-11-25T19:28:57.713Z,21.20
2018-11-25T19:34:01.100Z,21.33
2018-11-25T19:39:05.146Z,21.27
2018-11-25T19:44:08.528Z,21.23
2018-11-25T19:49:11.839Z,21.23
2018-11-25T19:54:15.276Z,21.20
2018-11-25T19:59:18.696Z,21.23
2018-11-25T20:04:22.055Z,21.23
2018-11-25T20:09:29.954Z,21.23
2018-11-25T20:14:33.419Z,21.19
2018-11-25T20:19:36.824Z,21.21
2018-11-25T20:24:40.127Z,21.24
2018-11-25T20:29:43.429Z,21.20
2018-11-25T20:34:47.005Z,21.18
2018-11-25T20:39:50.355Z,21.19
2018-11-25T20:44:53.672Z,21.20
2018-11-25T20:49:57.948Z,21.17
2018-11-25T20:55:01.245Z,21.18
2018-11-25T21:00:06.513Z,21.17
2018-11-25T21:05:11.534Z,21.19
2018-11-25T21:10:16.807Z,21.17
2018-11-25T21:15:20.099Z,21.19
2018-11-25T21:20:25.451Z,21.15
2018-11-25T21:25:28.755Z,21.17
2018-11-25T21:30:32.056Z,21.16
2018-11-25T21:35:35.384Z,21.16
2018-11-25T21:40:38.703Z,21.13
2018-11-25T21:45:42.117Z,21.12
2018-11-25T21:50:45.463Z,21.14
2018-11-25T22:00:52.130Z,21.15
2018-11-25T22:05:55.455Z,21.14
2018-11-25T22:10:58.801Z,21.15
2018-11-25T22:16:02.171Z,21.14
2018-11-25T22:21:05.911Z,21.13
2018-11-25T22:26:09.208Z,21.12
2018-11-25T22:31:12.532Z,21.14
2018-11-25T22:36:15.928Z,21.13
2018-11-25T22:41:19.216Z,21.12
2018-11-25T22:46:22.542Z,21.13
2018-11-25T22:51:25.872Z,21.12
2018-11-25T22:56:29.177Z,21.12
2018-11-25T23:01:32.487Z,21.11
2018-11-25T23:06:47.103Z,21.10
2018-11-25T23:11:50.483Z,21.09
2018-11-25T23:16:54.020Z,21.10
2018-11-25T23:21:57.304Z,21.11
2018-11-25T23:27:00.603Z,21.10
2018-11-25T23:32:04.281Z,21.10
2018-11-25T23:37:08.490Z,21.06
2018-11-25T23:42:11.807Z,21.04
2018-11-25T23:47:15.195Z,21.00
2018-11-25T23:52:18.615Z,21.01
2018-11-25T23:57:21.927Z,20.98
